SRV160M FKKD-DGAA
Flight info
| Callsign | SRV160M |
|---|---|
| Flight time | 1h 27m |
| Altitude | 36000 |
| Route | ARDEX UP685 EDBET UR983 LM UL433 EREKA EREKA1B |
| Aircraft | B738/M-SDE2E3FGHIRWXY/LB1 |
Departure
| Time | 2026-04-30 19:32 |
|---|---|
| Airport | Douala International Airport (FKKD) |
Arrival
| Time | 2026-04-30 21:00 |
|---|---|
| Airport | Kotoka International Airport (DGAA) |
| Time | Latitude | Longitude | Altitude | Speed | Heading |
|---|---|---|---|---|---|
| 2026-04-30 19:15 | 4.01664 | 9.70825 | 60 ft | 0 kts | 269° |
| 2026-04-30 19:23 | 4.01696 | 9.70849 | 30 ft | 2 kts | 177° |
| 2026-04-30 19:24 | 4.01701 | 9.70849 | 29 ft | 0 kts | 177° |
| 2026-04-30 19:26 | 4.01672 | 9.70851 | 29 ft | 9 kts | 176° |
| 2026-04-30 19:26 | 4.01604 | 9.70854 | 33 ft | 10 kts | 176° |
| 2026-04-30 19:27 | 4.01448 | 9.70869 | 33 ft | 12 kts | 173° |
| 2026-04-30 19:27 | 4.01258 | 9.70875 | 36 ft | 15 kts | 208° |
| 2026-04-30 19:28 | 4.01160 | 9.70880 | 37 ft | 18 kts | 143° |
| 2026-04-30 19:28 | 4.01008 | 9.71176 | 36 ft | 28 kts | 114° |
| 2026-04-30 19:29 | 4.00837 | 9.71508 | 36 ft | 27 kts | 116° |
| 2026-04-30 19:29 | 4.00744 | 9.71691 | 35 ft | 32 kts | 116° |
| 2026-04-30 19:30 | 4.00394 | 9.72386 | 31 ft | 42 kts | 116° |
| 2026-04-30 19:30 | 4.00148 | 9.72874 | 33 ft | 38 kts | 117° |
| 2026-04-30 19:31 | 4.00060 | 9.73108 | 31 ft | 9 kts | 175° |
| 2026-04-30 19:31 | 4.00050 | 9.73068 | 32 ft | 7 kts | 307° |
| 2026-04-30 19:31 | 4.00410 | 9.72356 | 32 ft | 129 kts | 296° |
| 2026-04-30 19:32 | 4.00905 | 9.71366 | 94 ft | 184 kts | 298° |
| 2026-04-30 19:32 | 4.01530 | 9.70145 | 663 ft | 206 kts | 294° |
| 2026-04-30 19:32 | 4.01853 | 9.68776 | 1571 ft | 197 kts | 268° |
| 2026-04-30 19:32 | 4.01841 | 9.67423 | 2424 ft | 202 kts | 268° |
| 2026-04-30 19:33 | 4.01842 | 9.65921 | 2622 ft | 229 kts | 269° |
| 2026-04-30 19:33 | 4.01859 | 9.64281 | 3049 ft | 241 kts | 270° |
| 2026-04-30 19:33 | 4.01895 | 9.62594 | 3676 ft | 245 kts | 271° |
| 2026-04-30 19:33 | 4.01948 | 9.60809 | 4025 ft | 266 kts | 272° |
| 2026-04-30 19:34 | 4.02018 | 9.58920 | 4732 ft | 274 kts | 272° |
| 2026-04-30 19:34 | 4.02101 | 9.57024 | 5515 ft | 279 kts | 272° |
| 2026-04-30 19:34 | 4.02303 | 9.53013 | 6948 ft | 292 kts | 273° |
| 2026-04-30 19:35 | 4.02416 | 9.50966 | 7694 ft | 296 kts | 274° |
| 2026-04-30 19:35 | 4.02534 | 9.48879 | 8400 ft | 303 kts | 274° |
| 2026-04-30 19:35 | 4.02658 | 9.46748 | 9070 ft | 310 kts | 274° |
| 2026-04-30 19:35 | 4.02787 | 9.44570 | 9787 ft | 316 kts | 275° |
| 2026-04-30 19:36 | 4.02919 | 9.42370 | 10289 ft | 328 kts | 275° |
| 2026-04-30 19:36 | 4.03062 | 9.39998 | 10449 ft | 352 kts | 274° |
| 2026-04-30 19:36 | 4.03377 | 9.34816 | 10904 ft | 389 kts | 274° |
| 2026-04-30 19:37 | 4.03541 | 9.32091 | 11427 ft | 395 kts | 274° |
| 2026-04-30 19:37 | 4.03651 | 9.30264 | 11846 ft | 396 kts | 274° |
| 2026-04-30 19:37 | 4.03818 | 9.27499 | 12473 ft | 399 kts | 274° |
| 2026-04-30 19:37 | 4.03985 | 9.24713 | 13068 ft | 403 kts | 274° |
| 2026-04-30 19:38 | 4.04156 | 9.21899 | 13662 ft | 407 kts | 274° |
| 2026-04-30 19:38 | 4.04327 | 9.19058 | 14176 ft | 410 kts | 274° |
| 2026-04-30 19:38 | 4.04500 | 9.16195 | 14731 ft | 413 kts | 273° |
| 2026-04-30 19:38 | 4.04674 | 9.13317 | 15273 ft | 415 kts | 273° |
| 2026-04-30 19:39 | 4.04849 | 9.10425 | 15793 ft | 418 kts | 273° |
| 2026-04-30 19:39 | 4.05025 | 9.07509 | 16303 ft | 421 kts | 273° |
| 2026-04-30 19:39 | 4.05202 | 9.04567 | 16782 ft | 424 kts | 273° |
| 2026-04-30 19:39 | 4.05381 | 9.01611 | 17283 ft | 427 kts | 273° |
| 2026-04-30 19:40 | 4.05561 | 8.98631 | 17788 ft | 429 kts | 273° |
| 2026-04-30 19:40 | 4.05741 | 8.95638 | 18255 ft | 432 kts | 273° |
| 2026-04-30 19:40 | 4.05923 | 8.92623 | 18639 ft | 435 kts | 273° |
| 2026-04-30 19:40 | 4.06105 | 8.89588 | 19039 ft | 437 kts | 273° |
| 2026-04-30 19:41 | 4.06285 | 8.86582 | 19437 ft | 439 kts | 273° |
| 2026-04-30 19:41 | 4.06469 | 8.83523 | 19824 ft | 442 kts | 273° |
| 2026-04-30 19:41 | 4.06655 | 8.80437 | 20210 ft | 444 kts | 273° |
| 2026-04-30 19:41 | 4.06841 | 8.77340 | 20581 ft | 447 kts | 273° |
| 2026-04-30 19:42 | 4.07028 | 8.74228 | 20948 ft | 449 kts | 273° |
| 2026-04-30 19:42 | 4.07216 | 8.71094 | 21311 ft | 451 kts | 273° |
| 2026-04-30 19:42 | 4.07405 | 8.67943 | 21621 ft | 455 kts | 273° |
| 2026-04-30 19:42 | 4.07595 | 8.64766 | 21957 ft | 457 kts | 273° |
| 2026-04-30 19:43 | 4.07786 | 8.61577 | 22309 ft | 459 kts | 273° |
| 2026-04-30 19:43 | 4.07977 | 8.58375 | 22648 ft | 461 kts | 273° |
| 2026-04-30 19:43 | 4.08167 | 8.55198 | 22965 ft | 464 kts | 273° |
| 2026-04-30 19:44 | 4.08556 | 8.48670 | 23559 ft | 468 kts | 273° |
| 2026-04-30 19:44 | 4.08751 | 8.45408 | 23816 ft | 470 kts | 273° |
| 2026-04-30 19:44 | 4.08944 | 8.42174 | 24090 ft | 471 kts | 273° |
| 2026-04-30 19:44 | 4.09139 | 8.38892 | 24355 ft | 473 kts | 273° |
| 2026-04-30 19:45 | 4.09336 | 8.35596 | 24607 ft | 474 kts | 273° |
| 2026-04-30 19:45 | 4.09532 | 8.32289 | 24844 ft | 476 kts | 273° |
| 2026-04-30 19:45 | 4.09730 | 8.28968 | 25066 ft | 478 kts | 273° |
| 2026-04-30 19:45 | 4.09928 | 8.25631 | 25312 ft | 480 kts | 273° |
| 2026-04-30 19:46 | 4.10125 | 8.22292 | 25564 ft | 481 kts | 273° |
| 2026-04-30 19:46 | 4.10323 | 8.18947 | 25817 ft | 482 kts | 273° |
| 2026-04-30 19:46 | 4.10523 | 8.15587 | 26057 ft | 484 kts | 273° |
| 2026-04-30 19:46 | 4.10723 | 8.12214 | 26291 ft | 485 kts | 273° |
| 2026-04-30 19:47 | 4.10923 | 8.08835 | 26507 ft | 487 kts | 273° |
| 2026-04-30 19:47 | 4.11055 | 8.06593 | 26652 ft | 488 kts | 273° |
| 2026-04-30 19:47 | 4.11324 | 8.02048 | 26949 ft | 490 kts | 273° |
| 2026-04-30 19:47 | 4.11526 | 7.98633 | 27161 ft | 491 kts | 273° |
| 2026-04-30 19:48 | 4.11725 | 7.95261 | 27368 ft | 492 kts | 273° |
| 2026-04-30 19:48 | 4.11927 | 7.91840 | 27570 ft | 494 kts | 273° |
| 2026-04-30 19:48 | 4.12129 | 7.88404 | 27770 ft | 495 kts | 273° |
| 2026-04-30 19:48 | 4.12353 | 7.84959 | 27979 ft | 496 kts | 274° |
| 2026-04-30 19:49 | 4.12660 | 7.81514 | 28162 ft | 497 kts | 275° |
| 2026-04-30 19:49 | 4.13384 | 7.74597 | 28540 ft | 500 kts | 276° |
| 2026-04-30 19:49 | 4.13751 | 7.71131 | 28720 ft | 501 kts | 276° |
| 2026-04-30 19:50 | 4.14111 | 7.67655 | 28894 ft | 502 kts | 276° |
| 2026-04-30 19:50 | 4.14463 | 7.64169 | 29061 ft | 503 kts | 276° |
| 2026-04-30 19:50 | 4.14809 | 7.60675 | 29262 ft | 504 kts | 275° |
| 2026-04-30 19:50 | 4.15150 | 7.57189 | 29540 ft | 503 kts | 275° |
| 2026-04-30 19:51 | 4.15490 | 7.53703 | 29842 ft | 501 kts | 275° |
| 2026-04-30 19:51 | 4.15828 | 7.50229 | 30092 ft | 500 kts | 275° |
| 2026-04-30 19:51 | 4.16165 | 7.46769 | 30353 ft | 498 kts | 276° |
| 2026-04-30 19:51 | 4.16503 | 7.43314 | 30620 ft | 497 kts | 276° |
| 2026-04-30 19:52 | 4.16835 | 7.39910 | 30811 ft | 498 kts | 276° |
| 2026-04-30 19:52 | 4.17173 | 7.36458 | 30979 ft | 499 kts | 275° |
| 2026-04-30 19:52 | 4.17511 | 7.32995 | 31185 ft | 499 kts | 275° |
| 2026-04-30 19:52 | 4.17849 | 7.29536 | 31429 ft | 498 kts | 275° |
| 2026-04-30 19:53 | 4.18186 | 7.26076 | 31672 ft | 497 kts | 275° |
| 2026-04-30 19:53 | 4.18522 | 7.22631 | 31893 ft | 497 kts | 275° |
| 2026-04-30 19:53 | 4.18858 | 7.19181 | 32110 ft | 498 kts | 275° |
| 2026-04-30 19:53 | 4.19195 | 7.15722 | 32342 ft | 497 kts | 275° |
| 2026-04-30 19:54 | 4.19531 | 7.12274 | 32585 ft | 497 kts | 275° |
| 2026-04-30 19:54 | 4.19866 | 7.08828 | 32827 ft | 497 kts | 275° |
| 2026-04-30 19:54 | 4.20198 | 7.05417 | 33054 ft | 497 kts | 275° |
| 2026-04-30 19:54 | 4.20534 | 7.01962 | 33290 ft | 497 kts | 275° |
| 2026-04-30 19:55 | 4.20870 | 6.98512 | 33531 ft | 497 kts | 275° |
| 2026-04-30 19:55 | 4.21205 | 6.95060 | 33791 ft | 496 kts | 275° |
| 2026-04-30 19:55 | 4.21539 | 6.91619 | 34029 ft | 496 kts | 275° |
| 2026-04-30 19:55 | 4.21874 | 6.88176 | 34262 ft | 495 kts | 275° |
| 2026-04-30 19:56 | 4.22207 | 6.84741 | 34506 ft | 494 kts | 275° |
| 2026-04-30 19:56 | 4.22539 | 6.81314 | 34721 ft | 494 kts | 275° |
| 2026-04-30 19:56 | 4.22868 | 6.77921 | 34919 ft | 494 kts | 275° |
| 2026-04-30 19:56 | 4.23200 | 6.74497 | 35154 ft | 493 kts | 275° |
| 2026-04-30 19:57 | 4.23531 | 6.71082 | 35398 ft | 492 kts | 275° |
| 2026-04-30 19:57 | 4.23861 | 6.67671 | 35626 ft | 491 kts | 276° |
| 2026-04-30 19:57 | 4.24189 | 6.64265 | 35822 ft | 491 kts | 276° |
| 2026-04-30 19:57 | 4.24517 | 6.60856 | 35890 ft | 493 kts | 276° |
| 2026-04-30 19:58 | 4.25170 | 6.54048 | 35899 ft | 492 kts | 276° |
| 2026-04-30 19:58 | 4.25822 | 6.47250 | 35891 ft | 489 kts | 276° |
| 2026-04-30 19:59 | 4.26471 | 6.40480 | 35887 ft | 487 kts | 276° |
| 2026-04-30 20:00 | 4.27447 | 6.30371 | 35899 ft | 486 kts | 276° |
| 2026-04-30 20:00 | 4.28096 | 6.23630 | 35898 ft | 486 kts | 276° |
| 2026-04-30 20:01 | 4.29072 | 6.13482 | 35901 ft | 489 kts | 276° |
| 2026-04-30 20:01 | 4.29725 | 6.06689 | 35902 ft | 491 kts | 276° |
| 2026-04-30 20:02 | 4.30699 | 5.96446 | 35899 ft | 493 kts | 276° |
| 2026-04-30 20:03 | 4.31669 | 5.86206 | 35900 ft | 495 kts | 276° |
| 2026-04-30 20:03 | 4.32320 | 5.79337 | 35898 ft | 495 kts | 276° |
| 2026-04-30 20:04 | 4.32970 | 5.72468 | 35898 ft | 495 kts | 276° |
| 2026-04-30 20:05 | 4.33939 | 5.62173 | 35898 ft | 494 kts | 276° |
| 2026-04-30 20:05 | 4.34875 | 5.51930 | 35901 ft | 493 kts | 276° |
| 2026-04-30 20:06 | 4.35500 | 5.45085 | 35900 ft | 492 kts | 276° |
| 2026-04-30 20:06 | 4.36125 | 5.38252 | 35898 ft | 492 kts | 276° |
| 2026-04-30 20:07 | 4.36748 | 5.31434 | 35899 ft | 491 kts | 275° |
| 2026-04-30 20:08 | 4.37681 | 5.21212 | 35899 ft | 490 kts | 275° |
| 2026-04-30 20:08 | 4.38298 | 5.14446 | 35904 ft | 490 kts | 275° |
| 2026-04-30 20:09 | 4.38918 | 5.07639 | 35905 ft | 490 kts | 275° |
| 2026-04-30 20:09 | 4.39848 | 4.97418 | 35904 ft | 491 kts | 275° |
| 2026-04-30 20:10 | 4.40778 | 4.87185 | 35900 ft | 492 kts | 275° |
| 2026-04-30 20:11 | 4.41706 | 4.76945 | 35902 ft | 492 kts | 275° |
| 2026-04-30 20:11 | 4.42324 | 4.70118 | 35904 ft | 492 kts | 275° |
| 2026-04-30 20:12 | 4.43252 | 4.59866 | 35905 ft | 492 kts | 275° |
| 2026-04-30 20:13 | 4.44048 | 4.53058 | 35894 ft | 491 kts | 283° |
| 2026-04-30 20:13 | 4.45743 | 4.46474 | 35902 ft | 491 kts | 286° |
| 2026-04-30 20:14 | 4.47559 | 4.39876 | 35908 ft | 491 kts | 286° |
| 2026-04-30 20:14 | 4.49328 | 4.33265 | 35903 ft | 491 kts | 285° |
| 2026-04-30 20:15 | 4.51056 | 4.26649 | 35901 ft | 491 kts | 285° |
| 2026-04-30 20:15 | 4.52773 | 4.20024 | 35905 ft | 491 kts | 285° |
| 2026-04-30 20:16 | 4.54486 | 4.13411 | 35910 ft | 490 kts | 285° |
| 2026-04-30 20:16 | 4.56192 | 4.06835 | 35898 ft | 489 kts | 285° |
| 2026-04-30 20:17 | 4.57904 | 4.00235 | 35899 ft | 489 kts | 285° |
| 2026-04-30 20:17 | 4.59613 | 3.93644 | 35904 ft | 488 kts | 285° |
| 2026-04-30 20:18 | 4.61319 | 3.87064 | 35904 ft | 488 kts | 285° |
| 2026-04-30 20:18 | 4.63025 | 3.80480 | 35908 ft | 487 kts | 285° |
| 2026-04-30 20:19 | 4.64720 | 3.73937 | 35899 ft | 487 kts | 285° |
| 2026-04-30 20:19 | 4.66424 | 3.67354 | 35903 ft | 487 kts | 285° |
| 2026-04-30 20:20 | 4.68127 | 3.60775 | 35905 ft | 488 kts | 285° |
| 2026-04-30 20:20 | 4.69831 | 3.54188 | 35905 ft | 488 kts | 285° |
| 2026-04-30 20:21 | 4.71536 | 3.47595 | 35905 ft | 489 kts | 285° |
| 2026-04-30 20:21 | 4.73241 | 3.40997 | 35905 ft | 489 kts | 285° |
| 2026-04-30 20:22 | 4.74939 | 3.34426 | 35902 ft | 490 kts | 285° |
| 2026-04-30 20:22 | 4.76647 | 3.27811 | 35901 ft | 490 kts | 285° |
| 2026-04-30 20:23 | 4.78354 | 3.21199 | 35903 ft | 490 kts | 285° |
| 2026-04-30 20:23 | 4.80065 | 3.14569 | 35898 ft | 490 kts | 285° |
| 2026-04-30 20:24 | 4.81773 | 3.07945 | 35896 ft | 490 kts | 285° |
| 2026-04-30 20:24 | 4.83469 | 3.01367 | 35903 ft | 490 kts | 285° |
| 2026-04-30 20:25 | 4.85741 | 2.92548 | 35898 ft | 490 kts | 285° |
| 2026-04-30 20:26 | 4.88293 | 2.82637 | 35898 ft | 489 kts | 285° |
| 2026-04-30 20:26 | 4.90840 | 2.72748 | 35899 ft | 488 kts | 285° |
| 2026-04-30 20:27 | 4.94233 | 2.59570 | 35897 ft | 487 kts | 285° |
| 2026-04-30 20:28 | 4.97603 | 2.46461 | 35900 ft | 486 kts | 285° |
| 2026-04-30 20:30 | 5.01827 | 2.30016 | 35897 ft | 487 kts | 285° |
| 2026-04-30 20:30 | 5.05042 | 2.20407 | 35903 ft | 482 kts | 304° |
| 2026-04-30 20:31 | 5.11969 | 2.13374 | 35901 ft | 475 kts | 324° |
| 2026-04-30 20:32 | 5.24944 | 2.03055 | 35896 ft | 476 kts | 323° |
| 2026-04-30 20:33 | 5.32635 | 1.96816 | 35896 ft | 476 kts | 323° |
| 2026-04-30 20:34 | 5.40368 | 1.90543 | 35895 ft | 476 kts | 323° |
| 2026-04-30 20:35 | 5.48100 | 1.84272 | 35893 ft | 476 kts | 323° |
| 2026-04-30 20:35 | 5.55818 | 1.78005 | 35893 ft | 476 kts | 323° |
| 2026-04-30 20:36 | 5.60954 | 1.73817 | 35892 ft | 475 kts | 323° |
| 2026-04-30 20:37 | 5.68611 | 1.67569 | 35894 ft | 474 kts | 323° |
| 2026-04-30 20:37 | 5.73733 | 1.63390 | 35883 ft | 474 kts | 323° |
| 2026-04-30 20:38 | 5.78853 | 1.59211 | 35894 ft | 474 kts | 323° |
| 2026-04-30 20:38 | 5.83984 | 1.55024 | 35431 ft | 481 kts | 323° |
| 2026-04-30 20:39 | 5.89180 | 1.50782 | 34189 ft | 481 kts | 323° |
| 2026-04-30 20:39 | 5.91785 | 1.48654 | 33421 ft | 483 kts | 323° |
| 2026-04-30 20:39 | 5.94396 | 1.46522 | 32676 ft | 484 kts | 323° |
| 2026-04-30 20:40 | 5.99623 | 1.42251 | 31178 ft | 485 kts | 323° |
| 2026-04-30 20:40 | 6.02244 | 1.40110 | 30382 ft | 486 kts | 323° |
| 2026-04-30 20:40 | 6.04872 | 1.37961 | 29489 ft | 488 kts | 323° |
| 2026-04-30 20:41 | 6.10090 | 1.33695 | 28039 ft | 481 kts | 323° |
| 2026-04-30 20:41 | 6.12632 | 1.31516 | 27410 ft | 478 kts | 315° |
| 2026-04-30 20:41 | 6.14531 | 1.28785 | 26813 ft | 478 kts | 296° |
| 2026-04-30 20:41 | 6.15546 | 1.25630 | 26249 ft | 475 kts | 280° |
| 2026-04-30 20:42 | 6.15742 | 1.22362 | 25672 ft | 472 kts | 266° |
| 2026-04-30 20:42 | 6.15157 | 1.19128 | 25064 ft | 469 kts | 250° |
| 2026-04-30 20:42 | 6.12589 | 1.13149 | 23896 ft | 464 kts | 244° |
| 2026-04-30 20:43 | 6.11249 | 1.10207 | 23260 ft | 462 kts | 244° |
| 2026-04-30 20:43 | 6.09956 | 1.07308 | 22611 ft | 459 kts | 245° |
| 2026-04-30 20:43 | 6.08680 | 1.04378 | 22008 ft | 455 kts | 245° |
| 2026-04-30 20:44 | 6.06206 | 0.98589 | 20843 ft | 446 kts | 246° |
| 2026-04-30 20:44 | 6.05092 | 0.95689 | 20278 ft | 443 kts | 248° |
| 2026-04-30 20:44 | 6.02989 | 0.89908 | 19116 ft | 437 kts | 248° |
| 2026-04-30 20:45 | 6.00900 | 0.84257 | 17951 ft | 431 kts | 248° |
| 2026-04-30 20:45 | 5.99845 | 0.81447 | 17339 ft | 428 kts | 248° |
| 2026-04-30 20:45 | 5.98806 | 0.78664 | 16769 ft | 424 kts | 249° |
| 2026-04-30 20:46 | 5.97184 | 0.70034 | 15116 ft | 415 kts | 261° |
| 2026-04-30 20:46 | 5.96782 | 0.67169 | 14574 ft | 413 kts | 261° |
| 2026-04-30 20:47 | 5.95929 | 0.61488 | 13451 ft | 409 kts | 260° |
| 2026-04-30 20:47 | 5.95482 | 0.58670 | 12865 ft | 407 kts | 260° |
| 2026-04-30 20:48 | 5.94579 | 0.53101 | 11779 ft | 401 kts | 260° |
| 2026-04-30 20:48 | 5.94133 | 0.50378 | 11245 ft | 399 kts | 260° |
| 2026-04-30 20:48 | 5.93687 | 0.47651 | 10946 ft | 390 kts | 260° |
| 2026-04-30 20:48 | 5.93252 | 0.44991 | 10730 ft | 379 kts | 260° |
| 2026-04-30 20:49 | 5.92832 | 0.42421 | 10562 ft | 368 kts | 260° |
| 2026-04-30 20:49 | 5.92422 | 0.39913 | 10403 ft | 358 kts | 260° |
| 2026-04-30 20:49 | 5.92025 | 0.37480 | 10256 ft | 348 kts | 260° |
| 2026-04-30 20:50 | 5.91260 | 0.32803 | 9969 ft | 331 kts | 260° |
| 2026-04-30 20:50 | 5.90892 | 0.30550 | 9830 ft | 323 kts | 260° |
| 2026-04-30 20:50 | 5.90537 | 0.28384 | 9616 ft | 317 kts | 260° |
| 2026-04-30 20:50 | 5.90176 | 0.26181 | 9224 ft | 319 kts | 260° |
| 2026-04-30 20:51 | 5.89815 | 0.23976 | 8874 ft | 319 kts | 260° |
| 2026-04-30 20:51 | 5.89095 | 0.19573 | 8147 ft | 319 kts | 261° |
| 2026-04-30 20:51 | 5.88735 | 0.17369 | 7789 ft | 319 kts | 261° |
| 2026-04-30 20:52 | 5.88375 | 0.15167 | 7433 ft | 319 kts | 261° |
| 2026-04-30 20:52 | 5.88016 | 0.12971 | 7075 ft | 319 kts | 261° |
| 2026-04-30 20:52 | 5.87298 | 0.08575 | 6345 ft | 318 kts | 261° |
| 2026-04-30 20:53 | 5.86938 | 0.06379 | 5950 ft | 318 kts | 261° |
| 2026-04-30 20:53 | 5.86581 | 0.04195 | 5584 ft | 316 kts | 261° |
| 2026-04-30 20:53 | 5.86225 | 0.02021 | 5221 ft | 315 kts | 261° |
| 2026-04-30 20:54 | 5.85518 | -0.02294 | 4495 ft | 311 kts | 261° |
| 2026-04-30 20:54 | 5.85158 | -0.04378 | 4420 ft | 295 kts | 256° |
| 2026-04-30 20:54 | 5.84331 | -0.06106 | 4543 ft | 262 kts | 231° |
| 2026-04-30 20:55 | 5.81567 | -0.08047 | 4182 ft | 234 kts | 201° |
| 2026-04-30 20:55 | 5.80074 | -0.08648 | 3895 ft | 228 kts | 200° |
| 2026-04-30 20:55 | 5.78631 | -0.09228 | 3623 ft | 219 kts | 201° |
| 2026-04-30 20:56 | 5.75923 | -0.10344 | 3074 ft | 202 kts | 201° |
| 2026-04-30 20:56 | 5.74645 | -0.10875 | 2810 ft | 196 kts | 200° |
| 2026-04-30 20:56 | 5.72213 | -0.11883 | 2353 ft | 182 kts | 200° |
| 2026-04-30 20:57 | 5.71061 | -0.12358 | 2111 ft | 174 kts | 200° |
| 2026-04-30 20:57 | 5.69980 | -0.12806 | 1911 ft | 160 kts | 201° |
| 2026-04-30 20:57 | 5.68993 | -0.13215 | 1708 ft | 153 kts | 200° |
| 2026-04-30 20:58 | 5.67043 | -0.14022 | 1323 ft | 149 kts | 200° |
| 2026-04-30 20:58 | 5.66090 | -0.14418 | 1118 ft | 146 kts | 200° |
| 2026-04-30 20:58 | 5.65159 | -0.14813 | 978 ft | 148 kts | 202° |
| 2026-04-30 20:58 | 5.64195 | -0.15240 | 813 ft | 156 kts | 201° |
| 2026-04-30 20:59 | 5.62220 | -0.16021 | 374 ft | 155 kts | 200° |
| 2026-04-30 20:59 | 5.61244 | -0.16427 | 231 ft | 145 kts | 200° |
| 2026-04-30 21:00 | 5.60014 | -0.16936 | 209 ft | 28 kts | 210° |
| 2026-04-30 21:00 | 5.59818 | -0.17154 | 208 ft | 12 kts | 268° |
| 2026-04-30 21:01 | 5.59951 | -0.17164 | 212 ft | 12 kts | 23° |
| 2026-04-30 21:01 | 5.60025 | -0.17137 | 206 ft | 11 kts | 22° |
| 2026-04-30 21:01 | 5.60098 | -0.17205 | 219 ft | 0 kts | 292° |
| 2026-04-30 21:02 | 5.60100 | -0.17211 | 215 ft | 0 kts | 291° |